createdAt,value
2018-10-01T00:00:04.898Z,8.08
2018-10-01T00:02:36.192Z,9.78
2018-10-01T00:05:07.172Z,9.13
2018-10-01T00:07:37.156Z,7.90
2018-10-01T00:10:07.411Z,8.45
2018-10-01T00:12:38.674Z,7.10
2018-10-01T00:15:09.364Z,9.05
2018-10-01T00:17:40.196Z,5.08
2018-10-01T00:20:15.936Z,5.58
2018-10-01T00:22:49.474Z,9.93
2018-10-01T00:25:19.858Z,6.47
2018-10-01T00:27:50.351Z,5.83
2018-10-01T00:30:21.633Z,6.85
2018-10-01T00:32:54.314Z,5.33
2018-10-01T00:35:24.198Z,6.03
2018-10-01T00:37:55.786Z,4.75
2018-10-01T00:40:26.870Z,8.48
2018-10-01T00:42:58.185Z,10.18
2018-10-01T00:45:28.346Z,7.90
2018-10-01T00:48:00.178Z,9.35
2018-10-01T00:50:32.215Z,12.40
2018-10-01T00:53:02.773Z,8.48
2018-10-01T00:55:34.112Z,9.50
2018-10-01T00:58:04.632Z,10.40
2018-10-01T01:00:35.149Z,9.90
2018-10-01T01:03:05.470Z,8.78
2018-10-01T01:05:35.583Z,11.38
2018-10-01T01:08:06.428Z,10.40
2018-10-01T01:10:36.659Z,11.63
2018-10-01T01:13:07.916Z,7.78
2018-10-01T01:15:38.323Z,11.28
2018-10-01T01:18:08.447Z,8.98
2018-10-01T01:20:38.972Z,10.75
2018-10-01T01:23:10.030Z,10.08
2018-10-01T01:25:41.671Z,13.85
2018-10-01T01:28:12.447Z,9.63
2018-10-01T01:30:42.990Z,10.60
2018-10-01T01:33:14.506Z,12.55
2018-10-01T01:35:44.730Z,10.78
2018-10-01T01:38:16.098Z,11.33
2018-10-01T01:40:46.692Z,11.35
2018-10-01T01:43:17.022Z,7.35
2018-10-01T01:45:47.512Z,10.68
2018-10-01T01:48:17.559Z,11.40
2018-10-01T01:53:36.645Z,7.12
2018-10-01T01:56:06.857Z,8.58
2018-10-01T01:58:37.054Z,10.05
2018-10-01T02:01:07.307Z,10.45
2018-10-01T02:03:37.806Z,8.95
2018-10-01T02:06:08.156Z,7.72
2018-10-01T02:08:39.514Z,7.85
2018-10-01T02:11:09.660Z,9.25
2018-10-01T02:13:39.343Z,7.33
2018-10-01T02:16:09.971Z,7.58
2018-10-01T02:18:40.565Z,5.90
2018-10-01T02:21:10.992Z,4.62
2018-10-01T02:23:40.967Z,6.15
2018-10-01T02:26:13.064Z,7.60
2018-10-01T02:28:43.234Z,7.55
2018-10-01T02:31:14.451Z,4.53
2018-10-01T02:33:44.843Z,8.33
2018-10-01T02:36:15.847Z,5.78
2018-10-01T02:38:45.903Z,5.08
2018-10-01T02:41:15.876Z,5.85
2018-10-01T02:43:46.064Z,6.65
2018-10-01T02:46:16.430Z,6.08
2018-10-01T02:48:46.181Z,5.95
2018-10-01T02:51:16.200Z,2.87
2018-10-01T02:53:51.455Z,4.33
2018-10-01T02:56:21.677Z,5.50
2018-10-01T02:58:52.602Z,6.03
2018-10-01T03:01:22.967Z,6.65
2018-10-01T03:03:53.154Z,4.37
2018-10-01T03:06:24.125Z,2.75
2018-10-01T03:08:56.851Z,5.60
2018-10-01T03:11:28.159Z,5.67
2018-10-01T03:13:58.481Z,4.42
2018-10-01T03:16:28.756Z,4.40
2018-10-01T03:18:58.801Z,5.65
2018-10-01T03:21:30.826Z,4.70
2018-10-01T03:24:01.602Z,8.30
2018-10-01T03:26:31.630Z,7.03
2018-10-01T03:29:01.904Z,11.22
2018-10-01T03:31:32.183Z,9.78
2018-10-01T03:34:03.234Z,15.50
2018-10-01T03:36:33.497Z,17.37
2018-10-01T03:39:06.902Z,15.35
2018-10-01T03:41:37.688Z,19.10
2018-10-01T03:44:09.029Z,23.83
2018-10-01T03:46:39.610Z,12.13
2018-10-01T03:49:11.539Z,22.25
2018-10-01T03:51:42.193Z,20.77
2018-10-01T03:54:12.895Z,20.48
2018-10-01T03:56:43.487Z,17.57
2018-10-01T03:59:16.208Z,18.82
2018-10-01T04:01:50.508Z,22.45
2018-10-01T04:04:22.730Z,26.90
2018-10-01T04:06:55.305Z,24.18
2018-10-01T04:09:26.097Z,30.00
2018-10-01T04:11:57.539Z,22.70
2018-10-01T04:14:28.068Z,24.12
2018-10-01T04:16:59.667Z,19.90
2018-10-01T04:19:30.299Z,25.35
2018-10-01T04:22:03.500Z,23.75
2018-10-01T04:24:34.739Z,23.52
2018-10-01T04:27:05.456Z,24.57
2018-10-01T04:29:43.413Z,23.47
2018-10-01T04:32:14.830Z,19.87
2018-10-01T04:34:45.828Z,22.20
2018-10-01T04:37:16.718Z,24.52
2018-10-01T04:39:49.152Z,23.42
2018-10-01T04:42:19.481Z,21.62
2018-10-01T04:44:51.585Z,23.73
2018-10-01T04:47:22.002Z,23.35
2018-10-01T04:49:53.604Z,23.20
2018-10-01T04:52:24.158Z,19.35
2018-10-01T04:54:58.327Z,22.48
2018-10-01T04:57:29.028Z,25.48
2018-10-01T04:59:59.362Z,21.68
2018-10-01T05:02:29.980Z,21.68
2018-10-01T05:05:01.205Z,20.92
2018-10-01T05:07:35.823Z,20.48
2018-10-01T05:10:06.767Z,22.15
2018-10-01T05:12:38.354Z,18.48
2018-10-01T05:15:12.475Z,20.70
2018-10-01T05:17:42.971Z,20.60
2018-10-01T05:20:13.946Z,18.17
2018-10-01T05:22:47.109Z,17.90
2018-10-01T05:25:17.832Z,18.92
2018-10-01T05:27:48.257Z,23.18
2018-10-01T05:30:19.776Z,21.50
2018-10-01T05:32:51.606Z,20.72
2018-10-01T05:35:23.328Z,20.30
2018-10-01T05:37:55.221Z,22.48
2018-10-01T05:40:28.093Z,19.95
2018-10-01T05:42:58.401Z,20.05
2018-10-01T05:45:28.714Z,21.12
2018-10-01T05:48:00.267Z,21.42
2018-10-01T05:50:31.314Z,14.00
2018-10-01T05:53:02.463Z,9.40
2018-10-01T05:55:33.600Z,18.05
2018-10-01T05:58:05.556Z,21.42
2018-10-01T06:00:36.810Z,16.37
2018-10-01T06:03:07.574Z,17.57
2018-10-01T06:05:41.586Z,18.35
2018-10-01T06:08:13.656Z,19.12
2018-10-01T06:10:44.191Z,17.60
2018-10-01T06:13:16.140Z,16.48
2018-10-01T06:15:47.662Z,13.68
2018-10-01T06:21:03.057Z,15.80
2018-10-01T06:23:34.217Z,14.58
2018-10-01T06:26:04.938Z,12.50
2018-10-01T06:28:36.082Z,13.83
2018-10-01T06:31:07.365Z,15.55
2018-10-01T06:33:38.798Z,12.05
2018-10-01T06:36:11.157Z,14.60
2018-10-01T06:38:42.557Z,15.15
2018-10-01T06:41:13.700Z,12.40
2018-10-01T06:43:44.123Z,7.17
2018-10-01T06:46:14.316Z,13.45
2018-10-01T06:48:46.205Z,13.20
2018-10-01T06:51:17.661Z,11.00
2018-10-01T06:53:48.276Z,12.78
2018-10-01T06:56:24.916Z,14.50
2018-10-01T06:58:56.469Z,14.87
2018-10-01T07:04:02.637Z,11.90
2018-10-01T07:06:33.232Z,12.95
2018-10-01T07:11:49.174Z,9.95
2018-10-01T07:14:24.746Z,8.78
2018-10-01T07:16:58.009Z,11.45
2018-10-01T07:19:31.017Z,11.35
2018-10-01T07:22:05.370Z,12.15
2018-10-01T07:27:28.367Z,8.28
2018-10-01T07:30:00.360Z,9.13
2018-10-01T07:32:31.136Z,6.87
2018-10-01T07:35:01.956Z,9.15
2018-10-01T07:37:32.112Z,8.53
2018-10-01T07:40:02.398Z,7.28
2018-10-01T07:42:33.737Z,8.35
2018-10-01T07:45:06.710Z,9.55
2018-10-01T07:47:41.336Z,6.95
2018-10-01T07:50:11.476Z,8.60
2018-10-01T07:52:47.052Z,8.03
2018-10-01T11:19:59.354Z,2.90
2018-10-01T11:22:31.423Z,1.80
2018-10-01T11:25:03.689Z,1.82
2018-10-01T11:27:38.862Z,1.10
2018-10-01T11:30:10.893Z,1.85
2018-10-01T11:32:40.931Z,0.47
2018-10-01T11:35:20.168Z,0.50
2018-10-01T11:37:50.625Z,3.10
2018-10-01T11:40:25.879Z,1.27
2018-10-01T11:42:56.495Z,1.12
2018-10-01T11:45:27.809Z,0.62
2018-10-01T11:47:58.332Z,1.62
2018-10-01T11:50:28.555Z,0.60
2018-10-01T11:53:06.224Z,1.37
2018-10-01T11:55:36.777Z,1.60
2018-10-01T12:01:01.564Z,1.30
2018-10-01T12:03:33.857Z,1.00
2018-10-01T12:06:04.020Z,1.65
2018-10-01T12:08:39.608Z,3.37
2018-10-01T12:11:10.725Z,1.67
2018-10-01T12:13:45.078Z,1.37
2018-10-01T12:16:20.044Z,1.62
2018-10-01T12:18:50.601Z,2.55
2018-10-01T12:21:23.889Z,1.75
2018-10-01T12:23:59.203Z,1.45
2018-10-01T12:26:30.295Z,1.45
2018-10-01T12:29:00.423Z,2.62
2018-10-01T12:31:32.079Z,0.95
2018-10-01T12:34:05.379Z,2.25
2018-10-01T12:36:35.667Z,2.52
2018-10-01T12:39:08.528Z,3.83
2018-10-01T12:41:39.178Z,2.72
2018-10-01T12:44:11.081Z,5.78
2018-10-01T12:46:42.969Z,5.12
2018-10-01T12:49:14.801Z,2.85
2018-10-01T12:51:46.223Z,2.70
2018-10-01T12:54:16.916Z,3.60
2018-10-01T12:56:48.814Z,3.10
2018-10-01T12:59:24.841Z,4.58
2018-10-01T13:01:55.770Z,2.77
2018-10-01T13:04:26.487Z,3.40
2018-10-01T13:07:00.572Z,4.95
2018-10-01T13:09:31.709Z,4.83
2018-10-01T13:12:07.968Z,2.40
2018-10-01T13:14:40.683Z,2.05
2018-10-01T13:17:17.066Z,1.98
2018-10-01T13:19:47.933Z,1.77
2018-10-01T13:22:26.301Z,3.35
2018-10-01T13:24:58.340Z,4.58
2018-10-01T13:27:29.025Z,2.37
2018-10-01T13:29:59.671Z,3.02
2018-10-01T13:32:31.455Z,3.12
2018-10-01T13:35:04.671Z,6.17
2018-10-01T13:37:38.998Z,3.42
2018-10-01T13:40:10.309Z,2.90
2018-10-01T13:42:43.524Z,5.90
2018-10-01T13:45:20.341Z,2.12
2018-10-01T13:48:11.319Z,5.28
2018-10-01T13:50:53.608Z,3.08
2018-10-01T13:53:25.320Z,2.25
2018-10-01T13:55:58.052Z,4.80
2018-10-01T13:58:29.278Z,1.37
2018-10-01T14:01:06.600Z,1.00
2018-10-01T14:03:39.466Z,5.03
2018-10-01T14:12:21.822Z,4.78
2018-10-01T14:14:56.298Z,4.85
2018-10-01T14:20:30.073Z,3.58
2018-10-01T14:23:32.462Z,21.65
2018-10-01T14:26:17.036Z,6.35
2018-10-01T14:28:57.308Z,3.20
2018-10-01T14:31:45.601Z,1.32
2018-10-01T14:34:53.761Z,3.80
2018-10-01T14:37:25.248Z,5.22
2018-10-01T14:39:57.829Z,1.45
2018-10-01T14:42:31.156Z,4.92
2018-10-01T14:45:10.538Z,1.92
2018-10-01T14:47:42.881Z,2.75
2018-10-01T14:50:16.033Z,3.40
2018-10-01T14:52:48.757Z,4.03
2018-10-01T15:09:58.861Z,6.00
2018-10-01T15:12:38.956Z,4.70
2018-10-01T15:18:05.334Z,1.82
2018-10-01T15:20:38.406Z,5.35
2018-10-01T15:23:10.163Z,1.60
2018-10-01T15:25:40.801Z,1.47
2018-10-01T15:28:14.019Z,4.80
2018-10-01T15:33:30.504Z,3.35
2018-10-01T15:36:02.810Z,2.70
2018-10-01T15:38:38.489Z,1.20
2018-10-01T15:41:10.384Z,2.70
2018-10-01T15:43:44.649Z,1.67
2018-10-01T15:46:15.041Z,3.25
2018-10-01T15:48:47.254Z,3.58
2018-10-01T15:51:18.006Z,4.05
2018-10-01T15:53:48.919Z,3.08
2018-10-01T15:56:23.917Z,1.95
2018-10-01T15:58:55.606Z,1.42
2018-10-01T16:01:28.371Z,1.90
2018-10-01T16:04:02.062Z,1.10
2018-10-01T16:06:32.852Z,2.15
2018-10-01T16:09:03.148Z,0.50
2018-10-01T16:11:33.563Z,2.98
2018-10-01T16:14:04.843Z,3.27
2018-10-01T16:16:36.463Z,2.70
2018-10-01T16:19:08.403Z,2.62
2018-10-01T16:21:39.661Z,1.87
2018-10-01T16:24:10.147Z,3.67
2018-10-01T16:26:42.753Z,2.12
2018-10-01T16:29:13.629Z,1.82
2018-10-01T16:31:43.776Z,1.65
2018-10-01T16:34:16.076Z,3.77
2018-10-01T16:36:53.856Z,2.05
2018-10-01T16:39:25.767Z,0.80
2018-10-01T16:41:58.648Z,1.20
2018-10-01T16:44:30.355Z,1.85
2018-10-01T16:47:04.891Z,2.25
2018-10-01T16:49:38.660Z,0.75
2018-10-01T16:52:14.494Z,2.30
2018-10-01T16:54:46.741Z,7.55
2018-10-01T16:57:22.092Z,1.62
2018-10-01T16:59:57.239Z,2.05
2018-10-01T17:02:31.850Z,4.12
2018-10-01T17:05:10.624Z,1.87
2018-10-01T17:07:44.811Z,1.67
2018-10-01T17:10:18.767Z,2.45
2018-10-01T17:12:53.668Z,41.20
2018-10-01T17:15:25.068Z,7.00
2018-10-01T17:17:59.286Z,2.90
2018-10-01T17:20:34.628Z,2.47
2018-10-01T17:23:15.267Z,3.27
2018-10-01T17:25:54.220Z,3.40
2018-10-01T17:28:33.770Z,2.45
2018-10-01T17:34:38.200Z,2.45
2018-10-01T17:37:26.354Z,2.52
2018-10-01T17:39:59.506Z,5.65
2018-10-01T17:42:32.819Z,3.95
2018-10-01T17:48:28.887Z,1.40
2018-10-01T17:51:01.444Z,5.00
2018-10-01T17:53:35.126Z,2.90
2018-10-01T17:56:09.292Z,2.60
2018-10-01T17:58:46.188Z,3.37
2018-10-01T18:01:18.644Z,4.50
2018-10-01T18:03:50.737Z,3.62
2018-10-01T18:06:24.406Z,3.33
2018-10-01T18:08:58.059Z,5.83
2018-10-01T18:11:44.692Z,4.50
2018-10-01T18:14:23.167Z,3.08
2018-10-01T18:16:59.904Z,9.50
2018-10-01T18:19:37.173Z,4.00
2018-10-01T18:22:13.572Z,3.50
2018-10-01T18:24:45.427Z,3.92
2018-10-01T18:27:17.063Z,4.10
2018-10-01T18:29:54.067Z,6.92
2018-10-01T18:32:30.215Z,5.30
2018-10-01T18:35:08.298Z,6.20
2018-10-01T18:37:47.478Z,4.55
2018-10-01T18:40:19.035Z,3.98
2018-10-01T18:42:54.024Z,11.90
2018-10-01T18:45:29.403Z,5.03
2018-10-01T18:51:28.257Z,4.75
2018-10-01T18:54:01.327Z,7.42
2018-10-01T18:56:32.327Z,3.92
2018-10-01T18:59:05.137Z,5.37
2018-10-01T19:01:38.630Z,5.08
2018-10-01T19:04:10.428Z,6.22
2018-10-01T19:06:43.854Z,8.25
2018-10-01T19:09:16.936Z,7.33
2018-10-01T19:11:50.660Z,5.83
2018-10-01T19:14:24.163Z,8.23
2018-10-01T19:16:58.578Z,6.60
2018-10-01T19:19:40.832Z,6.60
2018-10-01T19:22:41.375Z,6.17
2018-10-01T19:25:22.786Z,5.28
2018-10-01T19:28:00.694Z,4.85
2018-10-01T19:30:41.075Z,9.55
2018-10-01T19:33:30.832Z,6.65
2018-10-01T19:36:11.752Z,8.15
2018-10-01T19:38:44.835Z,9.38
2018-10-01T19:44:26.483Z,6.80
2018-10-01T19:46:59.288Z,6.10
2018-10-01T19:49:40.758Z,5.67
2018-10-01T19:52:21.008Z,11.15
2018-10-01T19:57:52.828Z,10.13
2018-10-01T20:00:37.053Z,12.30
2018-10-01T20:06:18.186Z,7.15
2018-10-01T20:09:02.178Z,9.03
2018-10-01T20:17:46.157Z,8.38
2018-10-01T20:20:25.407Z,9.23
2018-10-01T20:28:44.022Z,8.25
2018-10-01T20:31:25.231Z,8.93
2018-10-01T20:34:06.159Z,5.60
2018-10-01T20:36:46.323Z,7.65
2018-10-01T20:39:23.099Z,7.72
2018-10-01T20:42:02.894Z,8.75
2018-10-01T20:44:41.802Z,7.17
2018-10-01T20:47:19.830Z,9.15
2018-10-01T20:49:56.973Z,6.87
2018-10-01T20:52:38.087Z,6.87
2018-10-01T20:55:17.686Z,7.70
2018-10-01T20:57:55.612Z,9.83
2018-10-01T21:00:37.655Z,6.40
2018-10-01T21:03:18.384Z,12.40
2018-10-01T21:06:00.393Z,6.28
2018-10-01T21:08:46.427Z,7.25
2018-10-01T21:11:22.274Z,9.85
2018-10-01T21:13:56.586Z,8.33
2018-10-01T21:16:36.527Z,5.75
2018-10-01T21:19:09.585Z,4.78
2018-10-01T21:21:41.390Z,7.00
2018-10-01T21:24:14.491Z,6.03
2018-10-01T21:26:47.188Z,6.40
2018-10-01T21:29:19.117Z,7.12
2018-10-01T21:31:50.876Z,6.05
2018-10-01T21:34:23.150Z,6.78
2018-10-01T21:36:55.578Z,6.42
2018-10-01T21:41:39.387Z,8.45
2018-10-01T21:44:19.647Z,8.20
2018-10-01T21:47:05.534Z,12.98
2018-10-01T21:50:01.883Z,6.72
2018-10-01T21:52:41.444Z,4.97
2018-10-01T21:55:17.591Z,6.65
2018-10-01T21:58:02.718Z,9.93
2018-10-01T22:00:53.055Z,6.92
2018-10-01T22:03:28.175Z,8.28
2018-10-01T22:06:12.926Z,7.40
2018-10-01T22:08:53.187Z,7.30
2018-10-01T22:11:35.580Z,7.72
2018-10-01T22:14:14.627Z,9.05
2018-10-01T22:16:56.244Z,8.53
2018-10-01T22:19:32.801Z,5.65
2018-10-01T22:22:11.676Z,7.45
2018-10-01T22:24:50.538Z,9.53
2018-10-01T22:27:34.904Z,7.70
2018-10-01T22:30:12.178Z,5.62
2018-10-01T22:32:51.439Z,6.55
2018-10-01T22:35:24.549Z,7.62
2018-10-01T22:37:56.822Z,6.60
2018-10-01T22:40:29.493Z,8.38
2018-10-01T22:43:03.139Z,8.75
2018-10-01T22:45:35.512Z,7.85
2018-10-01T22:49:47.741Z,4.30
2018-10-01T22:52:23.486Z,5.33
2018-10-01T22:54:58.140Z,6.42
2018-10-01T22:57:38.581Z,5.15
2018-10-01T23:00:15.025Z,6.62
2018-10-01T23:02:48.951Z,5.43
2018-10-01T23:05:25.821Z,7.95
2018-10-01T23:07:58.912Z,7.72
2018-10-01T23:10:31.504Z,6.17
2018-10-01T23:13:03.020Z,5.20
2018-10-01T23:15:35.000Z,4.55
2018-10-01T23:18:06.756Z,8.25
2018-10-01T23:20:38.423Z,8.00
2018-10-01T23:23:10.169Z,3.52
2018-10-01T23:25:42.689Z,5.12
2018-10-01T23:28:14.607Z,7.17
2018-10-01T23:30:46.217Z,7.30
2018-10-01T23:33:16.506Z,6.22
2018-10-01T23:35:47.664Z,8.75
2018-10-01T23:38:19.682Z,5.67
2018-10-01T23:40:51.241Z,7.45
2018-10-01T23:43:23.038Z,5.80
2018-10-01T23:45:55.009Z,5.20
2018-10-01T23:48:29.964Z,6.25
2018-10-01T23:51:06.046Z,4.85
2018-10-01T23:53:37.245Z,5.80
2018-10-01T23:56:10.485Z,8.00
2018-10-01T23:58:41.827Z,6.12
